Time;durP1;ratioP1;P1;durP2;ratioP2;P2;SDS_P1;SDS_P2;PMS_P1;PMS_P2;Temp;Humidity;BMP_temperature;BMP_pressure;BME280_temperature;BME280_humidity;BME280_pressure;Samples;Min_cycle;Max_cycle;Signal;HPM_P1;HPM_P2
2022/10/23 07:40:37;;;;;;;3.10;2.80;;;;;;;;;;6185106;22;20023;-76
2022/10/23 07:43:03;;;;;;;2.75;2.50;;;;;;;;;;6246405;22;20435;-79
2022/10/23 07:45:28;;;;;;;3.65;2.60;;;;;;;;;;6246633;23;20459;-80
2022/10/23 07:47:53;;;;;;;2.88;2.67;;;;;;;;;;6247126;23;20333;-79
2022/10/23 07:50:19;;;;;;;2.83;2.63;;;;;;;;;;6247324;23;20007;-80
2022/10/23 07:52:44;;;;;;;2.53;2.33;;;;;;;;;;6246446;22;20043;-79
2022/10/23 07:55:10;;;;;;;2.60;2.40;;;;;;;;;;6246737;23;20004;-80
2022/10/23 07:57:37;;;;;;;2.55;2.35;;;;;;;;;;6246753;23;20004;-79
2022/10/23 08:00:02;;;;;;;2.42;2.22;;;;;;;;;;6246916;23;20051;-79
2022/10/23 08:02:28;;;;;;;3.03;2.28;;;;;;;;;;6246728;22;20071;-82
2022/10/23 08:04:53;;;;;;;3.50;2.13;;;;;;;;;;6246910;23;20000;-81
2022/10/23 08:07:19;;;;;;;2.33;2.13;;;;;;;;;;6246959;23;20000;-82
2022/10/23 08:09:44;;;;;;;2.25;2.15;;;;;;;;;;6219978;23;20004;-79
2022/10/23 08:12:09;;;;;;;3.47;2.42;;;;;;;;;;6246887;22;20004;-79
2022/10/23 08:14:35;;;;;;;2.72;2.38;;;;;;;;;;6246858;23;20000;-83
2022/10/23 08:17:00;;;;;;;2.22;2.13;;;;;;;;;;6247013;23;20483;-82
2022/10/23 08:19:26;;;;;;;2.50;2.35;;;;;;;;;;6246897;23;20005;-82
2022/10/23 08:21:53;;;;;;;3.00;2.80;;;;;;;;;;6246449;22;20046;-82
2022/10/23 08:24:19;;;;;;;5.63;4.55;;;;;;;;;;6246657;23;20382;-80
2022/10/23 08:26:45;;;;;;;6.35;5.50;;;;;;;;;;6246584;23;20004;-79
2022/10/23 08:29:10;;;;;;;3.92;3.42;;;;;;;;;;6247103;23;20000;-80
2022/10/23 08:31:35;;;;;;;3.13;2.92;;;;;;;;;;6246370;22;20000;-79
2022/10/23 08:34:01;;;;;;;2.83;2.63;;;;;;;;;;6246642;23;20331;-80
2022/10/23 08:36:28;;;;;;;5.32;2.95;;;;;;;;;;6246514;23;20004;-79
2022/10/23 08:38:55;;;;;;;4.45;4.03;;;;;;;;;;6246800;23;20367;-80
2022/10/23 08:41:37;;;;;;;3.90;3.60;;;;;;;;;;6246222;23;20066;-81
2022/10/23 08:44:18;;;;;;;3.97;3.60;;;;;;;;;;6219535;23;20019;-81
2022/10/23 08:46:48;;;;;;;3.88;3.47;;;;;;;;;;6219945;23;20383;-81
2022/10/23 08:49:23;;;;;;;5.05;4.07;;;;;;;;;;6246194;23;20004;-81
2022/10/23 08:51:52;;;;;;;4.00;3.70;;;;;;;;;;6246409;22;20000;-79
2022/10/23 08:54:43;;;;;;;4.68;4.10;;;;;;;;;;6246485;23;20004;-80
2022/10/23 08:57:15;;;;;;;3.95;3.65;;;;;;;;;;6246509;23;20067;-83
2022/10/23 08:59:47;;;;;;;3.92;3.60;;;;;;;;;;6245850;23;20040;-80
2022/10/23 09:02:21;;;;;;;3.78;3.28;;;;;;;;;;6246550;22;20005;-80
2022/10/23 09:04:49;;;;;;;3.97;3.67;;;;;;;;;;6246593;23;20000;-79
2022/10/23 09:07:20;;;;;;;4.07;3.78;;;;;;;;;;6246467;23;20015;-79
2022/10/23 09:09:55;;;;;;;3.80;3.50;;;;;;;;;;6246214;23;20011;-80
2022/10/23 09:12:22;;;;;;;3.75;3.42;;;;;;;;;;6246121;22;20435;-81
2022/10/23 09:15:14;;;;;;;3.95;3.55;;;;;;;;;;6246615;23;20024;-79
2022/10/23 09:17:42;;;;;;;3.67;3.38;;;;;;;;;;6219484;23;20014;-81
2022/10/23 09:20:30;;;;;;;4.28;3.88;;;;;;;;;;6246423;23;20449;-83
2022/10/23 09:23:25;;;;;;;3.45;3.22;;;;;;;;;;6246335;22;20011;-81
2022/10/23 09:25:55;;;;;;;3.95;3.30;;;;;;;;;;6214345;23;20010;-81
2022/10/23 09:28:29;;;;;;;2.70;2.50;;;;;;;;;;6246479;23;20050;-78
2022/10/23 09:31:05;;;;;;;3.05;2.75;;;;;;;;;;6246250;23;20014;-78
2022/10/23 09:33:31;;;;;;;3.55;3.25;;;;;;;;;;6246107;22;20004;-79
2022/10/23 09:36:17;;;;;;;3.35;3.05;;;;;;;;;;6247971;23;20465;-78
2022/10/23 09:38:45;;;;;;;3.47;3.17;;;;;;;;;;6248430;23;20087;-77
2022/10/23 09:41:37;;;;;;;3.30;3.00;;;;;;;;;;6248042;23;20066;-78
2022/10/23 09:44:22;;;;;;;2.90;2.70;;;;;;;;;;6248208;23;20036;-78
2022/10/23 09:47:10;;;;;;;2.78;2.58;;;;;;;;;;6248346;23;20434;-78
2022/10/23 09:49:39;;;;;;;3.05;2.80;;;;;;;;;;6221341;23;20004;-80
2022/10/23 09:52:18;;;;;;;3.03;2.67;;;;;;;;;;6248342;22;20004;-80
2022/10/23 09:54:57;;;;;;;;;;;;;;;;;;6248670;23;20005;-80
2022/10/23 09:57:41;;;;;;;3.10;2.70;;;;;;;;;;6248131;23;19953;-81
2022/10/23 10:00:12;;;;;;;2.60;2.40;;;;;;;;;;6248307;23;20427;-78
2022/10/23 10:02:39;;;;;;;5.43;4.93;;;;;;;;;;6247948;22;20011;-78
2022/10/23 10:05:33;;;;;;;5.20;4.70;;;;;;;;;;6248146;23;20015;-78
2022/10/23 10:08:16;;;;;;;3.63;3.33;;;;;;;;;;6248011;23;20000;-78
2022/10/23 10:10:50;;;;;;;2.67;2.47;;;;;;;;;;6247840;23;20007;-78
2022/10/23 10:13:31;;;;;;;4.07;3.65;;;;;;;;;;6247651;22;20014;-78
2022/10/23 10:16:08;;;;;;;2.10;2.00;;;;;;;;;;6247902;23;20031;-78
2022/10/23 10:18:41;;;;;;;2.67;2.10;;;;;;;;;;6247783;23;20071;-78
2022/10/23 10:21:24;;;;;;;3.75;2.72;;;;;;;;;;6247651;23;20008;-79
2022/10/23 10:24:04;;;;;;;5.45;4.95;;;;;;;;;;6247588;22;20377;-78
2022/10/23 10:27:16;;;;;;;4.82;4.32;;;;;;;;;;6247226;23;20008;-80
2022/10/23 10:29:56;;;;;;;2.92;2.63;;;;;;;;;;6241227;23;20114;-81
2022/10/23 10:32:34;;;;;;;2.65;2.45;;;;;;;;;;6247504;22;20000;-80
2022/10/23 10:35:12;;;;;;;2.20;2.00;;;;;;;;;;6247661;23;20335;-79
2022/10/23 10:37:43;;;;;;;1.85;1.75;;;;;;;;;;6247641;23;20004;-79
2022/10/23 10:40:19;;;;;;;2.25;2.00;;;;;;;;;;6247628;23;20003;-81
2022/10/23 15:59:08;;;;;;;3.65;3.35;;;;;;;;;;6209970;22;20051;-82
2022/10/23 16:01:33;;;;;;;4.47;4.07;;;;;;;;;;6216267;23;20545;-78
2022/10/23 16:03:58;;;;;;;5.35;3.65;;;;;;;;;;6186020;23;20361;-83
2022/10/23 16:06:24;;;;;;;4.22;3.80;;;;;;;;;;6186054;23;20005;-81
2022/10/23 16:08:49;;;;;;;5.30;3.67;;;;;;;;;;6186358;23;20011;-80
2022/10/23 16:11:21;;;;;;;4.57;4.00;;;;;;;;;;6185910;23;20088;-81
2022/10/23 16:13:47;;;;;;;8.40;4.20;;;;;;;;;;6186363;23;20127;-81
2022/10/23 16:16:13;;;;;;;6.60;3.80;;;;;;;;;;6186173;23;20033;-81
2022/10/23 16:18:39;;;;;;;5.80;4.25;;;;;;;;;;6186459;23;20033;-81
2022/10/23 16:21:06;;;;;;;9.05;8.07;;;;;;;;;;6186200;23;20371;-81
2022/10/23 16:23:32;;;;;;;7.50;6.80;;;;;;;;;;6185883;23;20408;-81
2022/10/23 16:26:03;;;;;;;5.28;4.78;;;;;;;;;;6186151;23;20005;-89
2022/10/23 16:28:28;;;;;;;6.78;4.95;;;;;;;;;;6186251;23;20036;-79
2022/10/23 16:30:54;;;;;;;5.13;4.63;;;;;;;;;;6186143;23;20024;-80
2022/10/23 16:33:19;;;;;;;5.85;5.20;;;;;;;;;;6185898;23;20009;-80
2022/10/23 16:35:44;;;;;;;10.57;9.38;;;;;;;;;;6186059;23;20024;-82
2022/10/23 16:38:10;;;;;;;5.75;5.03;;;;;;;;;;6185664;23;20001;-83
2022/10/23 16:40:35;;;;;;;5.75;4.35;;;;;;;;;;6185733;23;20005;-82
2022/10/23 16:43:01;;;;;;;5.03;4.28;;;;;;;;;;6185751;23;20005;-81
2022/10/23 16:45:26;;;;;;;5.85;5.35;;;;;;;;;;6186023;23;20032;-82
2022/10/23 16:47:52;;;;;;;9.25;4.95;;;;;;;;;;6185611;23;20005;-82
2022/10/23 16:50:17;;;;;;;7.38;4.78;;;;;;;;;;6185442;23;20001;-81
2022/10/23 16:52:43;;;;;;;8.02;4.68;;;;;;;;;;6185698;23;20011;-80
2022/10/23 16:55:08;;;;;;;8.77;5.70;;;;;;;;;;6185905;23;20029;-78
2022/10/23 16:57:35;;;;;;;7.72;6.55;;;;;;;;;;6186311;23;20332;-91
2022/10/23 17:00:01;;;;;;;15.00;13.43;;;;;;;;;;6184635;23;20005;-84
2022/10/23 17:02:26;;;;;;;36.80;32.90;;;;;;;;;;6186319;23;20333;-87
2022/10/23 17:04:51;;;;;;;14.57;12.95;;;;;;;;;;6187876;23;20081;-86
2022/10/23 17:07:17;;;;;;;9.35;8.32;;;;;;;;;;6186524;23;20480;-87
2022/10/23 17:09:45;;;;;;;11.43;7.60;;;;;;;;;;6184786;23;20013;-87
2022/10/23 17:12:11;;;;;;;15.00;11.80;;;;;;;;;;6184748;23;20005;-87
2022/10/23 17:14:37;;;;;;;12.20;9.93;;;;;;;;;;6186237;23;20009;-89
2022/10/23 17:17:05;;;;;;;8.60;4.90;;;;;;;;;;6186556;23;20016;-92
2022/10/23 17:19:31;;;;;;;7.22;4.90;;;;;;;;;;6184723;23;20001;-82
2022/10/23 17:21:58;;;;;;;7.55;4.68;;;;;;;;;;6186071;23;20415;-87
2022/10/23 17:24:23;;;;;;;128.48;74.63;;;;;;;;;;6186110;23;20328;-83
2022/10/23 17:26:49;;;;;;;87.72;53.78;;;;;;;;;;6186122;23;20001;-90
2022/10/23 17:29:15;;;;;;;60.13;38.95;;;;;;;;;;6184561;23;20012;-85
2022/10/23 17:31:44;;;;;;;37.08;30.75;;;;;;;;;;6185745;23;20005;-86
2022/10/23 17:34:11;;;;;;;17.67;14.38;;;;;;;;;;6184247;23;20321;-81
2022/10/23 17:36:42;;;;;;;11.65;10.38;;;;;;;;;;6184595;23;20006;-85
2022/10/23 17:39:09;;;;;;;11.63;10.43;;;;;;;;;;6186558;23;20020;-84
2022/10/23 17:41:35;;;;;;;12.00;10.73;;;;;;;;;;6184415;23;20008;-87
2022/10/23 17:44:01;;;;;;;6.95;6.30;;;;;;;;;;6186373;23;20060;-90
2022/10/23 17:46:28;;;;;;;7.50;6.05;;;;;;;;;;6186027;23;20009;-90
2022/10/23 17:48:59;;;;;;;8.13;7.07;;;;;;;;;;6186765;23;20009;-88
2022/10/23 17:51:26;;;;;;;8.07;7.28;;;;;;;;;;6190345;23;20012;-87
2022/10/23 17:56:31;;;;;;;6.28;5.50;;;;;;;;;;6163629;22;20024;-81
2022/10/23 17:59:06;;;;;;;8.93;5.07;;;;;;;;;;6218257;23;20016;-88
2022/10/23 18:01:31;;;;;;;7.38;5.30;;;;;;;;;;6215596;23;20005;-89
2022/10/23 18:04:00;;;;;;;6.53;5.40;;;;;;;;;;6216466;23;20084;-92
2022/10/23 18:06:30;;;;;;;5.85;5.22;;;;;;;;;;6219680;23;20001;-88
2022/10/23 18:08:57;;;;;;;5.18;4.65;;;;;;;;;;6216034;23;20008;-86
2022/10/23 18:11:29;;;;;;;7.05;4.75;;;;;;;;;;6217326;23;20005;-85
2022/10/23 18:13:56;;;;;;;4.85;4.10;;;;;;;;;;6217488;23;20015;-82
2022/10/23 18:16:21;;;;;;;6.57;4.55;;;;;;;;;;6217564;23;20078;-83
2022/10/23 18:18:47;;;;;;;6.90;4.50;;;;;;;;;;6217618;23;20005;-83
2022/10/23 18:21:14;;;;;;;9.32;4.93;;;;;;;;;;6217890;23;20005;-86
2022/10/23 18:23:40;;;;;;;7.93;4.50;;;;;;;;;;6217596;23;20035;-85
2022/10/23 18:26:19;;;;;;;6.00;5.22;;;;;;;;;;6217257;23;20001;-82
2022/10/23 18:28:46;;;;;;;8.57;4.90;;;;;;;;;;6217285;23;20008;-82
2022/10/23 18:31:12;;;;;;;7.40;4.95;;;;;;;;;;6217677;23;20011;-83
2022/10/23 18:33:38;;;;;;;6.65;4.63;;;;;;;;;;6217303;23;20008;-84
2022/10/23 18:36:15;;;;;;;7.75;5.45;;;;;;;;;;6217089;23;20070;-83
2022/10/23 18:38:41;;;;;;;5.78;5.25;;;;;;;;;;6217509;23;20039;-84
2022/10/23 18:41:06;;;;;;;9.30;5.40;;;;;;;;;;6215507;23;20359;-84
2022/10/23 18:43:32;;;;;;;7.68;5.68;;;;;;;;;;6217211;23;20009;-84
2022/10/23 18:45:57;;;;;;;7.47;6.18;;;;;;;;;;6217324;23;20010;-83
2022/10/23 18:48:23;;;;;;;5.88;5.07;;;;;;;;;;6216914;23;20323;-84
2022/10/23 18:50:48;;;;;;;13.23;7.72;;;;;;;;;;6217418;23;20007;-82
2022/10/23 18:53:13;;;;;;;64.00;34.63;;;;;;;;;;6215356;23;20008;-86
2022/10/23 18:55:48;;;;;;;66.93;39.00;;;;;;;;;;6216961;23;20011;-84
2022/10/23 18:58:14;;;;;;;53.22;32.95;;;;;;;;;;6216859;23;20043;-82
2022/10/23 19:00:41;;;;;;;17.13;11.07;;;;;;;;;;6217237;23;20008;-83
2022/10/23 19:03:07;;;;;;;9.05;6.72;;;;;;;;;;6217105;23;19996;-83
2022/10/23 19:05:32;;;;;;;7.32;6.57;;;;;;;;;;6216805;23;20009;-83
2022/10/23 19:07:59;;;;;;;9.68;7.57;;;;;;;;;;6216749;23;19996;-84
2022/10/23 19:10:25;;;;;;;32.80;22.90;;;;;;;;;;6216769;23;20004;-84
2022/10/23 19:12:51;;;;;;;24.10;16.55;;;;;;;;;;6216911;23;20004;-84
2022/10/23 19:15:16;;;;;;;74.40;60.53;;;;;;;;;;6217059;23;20328;-85
2022/10/23 19:17:42;;;;;;;51.58;41.95;;;;;;;;;;6216975;23;20074;-84
2022/10/23 19:20:12;;;;;;;23.15;18.42;;;;;;;;;;6217032;23;20000;-84
2022/10/23 19:22:39;;;;;;;14.90;10.57;;;;;;;;;;6217251;23;20005;-84
2022/10/23 19:25:14;;;;;;;10.55;8.38;;;;;;;;;;6216801;23;20011;-84
2022/10/23 19:27:41;;;;;;;10.98;7.60;;;;;;;;;;6216925;23;20331;-84
2022/10/23 19:30:12;;;;;;;8.80;7.15;;;;;;;;;;6217029;23;20073;-85
2022/10/23 19:32:39;;;;;;;8.63;6.07;;;;;;;;;;6216641;23;20005;-85
2022/10/23 19:35:07;;;;;;;8.38;6.25;;;;;;;;;;6215185;23;20004;-85
2022/10/23 19:37:33;;;;;;;7.77;6.20;;;;;;;;;;6216839;23;20328;-85
2022/10/23 19:39:58;;;;;;;7.85;5.50;;;;;;;;;;6216877;23;20004;-84
2022/10/23 19:42:24;;;;;;;10.02;6.43;;;;;;;;;;6216816;23;20058;-84
2022/10/23 19:44:49;;;;;;;9.65;7.30;;;;;;;;;;6216941;23;20005;-84
2022/10/23 19:47:15;;;;;;;9.40;8.00;;;;;;;;;;6214984;23;20475;-84
2022/10/23 19:49:40;;;;;;;12.35;7.40;;;;;;;;;;6216615;23;20032;-83
2022/10/23 19:52:06;;;;;;;8.45;6.82;;;;;;;;;;6216552;23;20071;-83
2022/10/23 19:54:31;;;;;;;8.70;5.55;;;;;;;;;;6216902;23;20007;-84
2022/10/23 19:56:57;;;;;;;7.25;5.78;;;;;;;;;;6216387;23;20013;-83
2022/10/23 19:59:23;;;;;;;8.18;6.97;;;;;;;;;;6214805;23;20008;-83
2022/10/23 20:01:48;;;;;;;8.45;6.97;;;;;;;;;;6216649;23;20076;-84
2022/10/23 20:04:14;;;;;;;9.38;5.75;;;;;;;;;;6216340;23;20035;-84
2022/10/23 20:06:52;;;;;;;9.13;5.65;;;;;;;;;;6218505;23;20015;-85
2022/10/23 20:09:18;;;;;;;10.43;5.53;;;;;;;;;;6217187;23;20430;-84
2022/10/23 20:11:44;;;;;;;7.40;5.50;;;;;;;;;;6216246;23;20005;-84
2022/10/23 20:14:09;;;;;;;9.82;6.10;;;;;;;;;;6216349;23;20430;-83
2022/10/23 20:16:37;;;;;;;8.27;6.03;;;;;;;;;;6214494;23;20419;-84
2022/10/23 20:19:08;;;;;;;8.35;6.38;;;;;;;;;;6215786;23;20015;-85
2022/10/23 20:21:36;;;;;;;11.68;6.85;;;;;;;;;;6216202;23;20011;-83
2022/10/23 20:24:01;;;;;;;11.95;7.22;;;;;;;;;;6216367;23;20368;-85
2022/10/23 20:26:27;;;;;;;7.95;6.50;;;;;;;;;;6216317;23;20036;-83
2022/10/23 20:28:54;;;;;;;8.63;5.85;;;;;;;;;;6216471;23;20055;-84
2022/10/23 20:31:22;;;;;;;8.82;7.03;;;;;;;;;;6216406;23;20001;-84
2022/10/23 20:33:48;;;;;;;12.73;10.95;;;;;;;;;;6216348;23;20336;-85
2022/10/23 20:36:25;;;;;;;10.10;8.75;;;;;;;;;;6216205;23;20036;-83
2022/10/23 20:38:51;;;;;;;11.88;7.80;;;;;;;;;;6216537;23;20007;-83
2022/10/23 20:41:18;;;;;;;19.88;15.68;;;;;;;;;;6216284;23;19996;-84
2022/10/23 20:43:43;;;;;;;14.93;13.32;;;;;;;;;;6215991;23;20009;-83
2022/10/23 20:46:09;;;;;;;11.52;8.20;;;;;;;;;;6216282;23;20004;-83
2022/10/23 20:48:39;;;;;;;9.48;7.20;;;;;;;;;;6216377;23;20420;-84
2022/10/23 20:51:07;;;;;;;7.55;5.82;;;;;;;;;;6216131;23;20462;-83
2022/10/23 20:53:34;;;;;;;8.57;6.60;;;;;;;;;;6215822;23;20339;-84
2022/10/23 20:56:02;;;;;;;10.02;7.03;;;;;;;;;;6216279;23;20036;-84
2022/10/23 20:58:28;;;;;;;9.30;6.80;;;;;;;;;;6215998;23;20016;-83
2022/10/23 21:00:55;;;;;;;9.32;6.30;;;;;;;;;;6214483;23;20155;-83
2022/10/23 21:03:21;;;;;;;10.35;6.72;;;;;;;;;;6215829;23;20356;-83
2022/10/23 21:05:46;;;;;;;9.13;6.88;;;;;;;;;;6216124;23;20004;-83
2022/10/23 21:08:12;;;;;;;8.35;6.60;;;;;;;;;;6216100;23;20005;-83
2022/10/23 21:10:43;;;;;;;8.07;7.28;;;;;;;;;;6216122;23;20054;-82
